sensor_id;sensor_type;location;lat;lon;timestamp;temperature;humidity
18444;DHT22;9350;53.176;8.194;2022-11-13T00:02:03;6.50;99.90
18444;DHT22;9350;53.176;8.194;2022-11-13T00:04:30;6.50;99.90
18444;DHT22;9350;53.176;8.194;2022-11-13T00:06:57;6.50;99.90
18444;DHT22;9350;53.176;8.194;2022-11-13T00:09:23;6.40;99.90
18444;DHT22;9350;53.176;8.194;2022-11-13T00:11:51;6.40;99.90
18444;DHT22;9350;53.176;8.194;2022-11-13T00:14:18;6.50;99.90
18444;DHT22;9350;53.176;8.194;2022-11-13T00:16:45;6.50;99.90
18444;DHT22;9350;53.176;8.194;2022-11-13T00:19:12;6.40;99.90
18444;DHT22;9350;53.176;8.194;2022-11-13T00:21:39;6.40;99.90
18444;DHT22;9350;53.176;8.194;2022-11-13T00:24:06;6.40;99.90
18444;DHT22;9350;53.176;8.194;2022-11-13T00:26:33;6.40;99.90
18444;DHT22;9350;53.176;8.194;2022-11-13T00:29:02;6.40;99.90
18444;DHT22;9350;53.176;8.194;2022-11-13T00:31:29;6.50;99.90
18444;DHT22;9350;53.176;8.194;2022-11-13T00:33:57;6.40;99.90
18444;DHT22;9350;53.176;8.194;2022-11-13T00:36:26;6.50;99.90
18444;DHT22;9350;53.176;8.194;2022-11-13T00:38:53;6.40;99.90
18444;DHT22;9350;53.176;8.194;2022-11-13T00:41:20;6.40;99.90
18444;DHT22;9350;53.176;8.194;2022-11-13T00:43:47;6.40;99.90
18444;DHT22;9350;53.176;8.194;2022-11-13T00:46:15;6.40;99.90
18444;DHT22;9350;53.176;8.194;2022-11-13T00:48:42;6.40;99.90
18444;DHT22;9350;53.176;8.194;2022-11-13T00:51:09;6.30;99.90
18444;DHT22;9350;53.176;8.194;2022-11-13T00:53:35;6.40;99.90
18444;DHT22;9350;53.176;8.194;2022-11-13T00:56:02;6.40;99.90
18444;DHT22;9350;53.176;8.194;2022-11-13T00:58:29;6.40;99.90
18444;DHT22;9350;53.176;8.194;2022-11-13T01:01:04;6.40;99.90
18444;DHT22;9350;53.176;8.194;2022-11-13T01:03:32;6.40;99.90
18444;DHT22;9350;53.176;8.194;2022-11-13T01:05:59;6.50;99.90
18444;DHT22;9350;53.176;8.194;2022-11-13T01:08:26;6.30;99.90
18444;DHT22;9350;53.176;8.194;2022-11-13T01:10:53;6.40;99.90
18444;DHT22;9350;53.176;8.194;2022-11-13T01:13:19;6.40;99.90
18444;DHT22;9350;53.176;8.194;2022-11-13T01:15:46;6.30;99.90
18444;DHT22;9350;53.176;8.194;2022-11-13T01:18:13;6.30;99.90
18444;DHT22;9350;53.176;8.194;2022-11-13T01:20:41;6.30;99.90
18444;DHT22;9350;53.176;8.194;2022-11-13T01:23:08;6.30;99.90
18444;DHT22;9350;53.176;8.194;2022-11-13T01:25:35;6.30;99.90
18444;DHT22;9350;53.176;8.194;2022-11-13T01:28:02;6.30;99.90
18444;DHT22;9350;53.176;8.194;2022-11-13T01:30:28;6.30;99.90
18444;DHT22;9350;53.176;8.194;2022-11-13T01:32:55;6.30;99.90
18444;DHT22;9350;53.176;8.194;2022-11-13T01:35:22;6.30;99.90
18444;DHT22;9350;53.176;8.194;2022-11-13T01:37:50;6.30;99.90
18444;DHT22;9350;53.176;8.194;2022-11-13T01:40:17;6.30;99.90
18444;DHT22;9350;53.176;8.194;2022-11-13T01:42:43;6.30;99.90
18444;DHT22;9350;53.176;8.194;2022-11-13T01:48:33;6.30;99.90
18444;DHT22;9350;53.176;8.194;2022-11-13T01:51:02;6.30;99.90
18444;DHT22;9350;53.176;8.194;2022-11-13T01:53:30;6.30;99.90
18444;DHT22;9350;53.176;8.194;2022-11-13T01:55:57;6.40;99.90
18444;DHT22;9350;53.176;8.194;2022-11-13T01:58:24;6.20;99.90
18444;DHT22;9350;53.176;8.194;2022-11-13T02:00:51;6.30;99.90
18444;DHT22;9350;53.176;8.194;2022-11-13T02:03:17;6.30;99.90
18444;DHT22;9350;53.176;8.194;2022-11-13T02:05:44;6.30;99.90
18444;DHT22;9350;53.176;8.194;2022-11-13T02:08:12;6.30;99.90
18444;DHT22;9350;53.176;8.194;2022-11-13T02:10:40;6.40;99.90
18444;DHT22;9350;53.176;8.194;2022-11-13T02:13:06;6.30;99.90
18444;DHT22;9350;53.176;8.194;2022-11-13T02:15:33;6.30;99.90
18444;DHT22;9350;53.176;8.194;2022-11-13T02:18:01;6.30;99.90
18444;DHT22;9350;53.176;8.194;2022-11-13T02:20:34;6.30;99.90
18444;DHT22;9350;53.176;8.194;2022-11-13T02:23:10;6.40;99.90
18444;DHT22;9350;53.176;8.194;2022-11-13T02:25:42;6.30;99.90
18444;DHT22;9350;53.176;8.194;2022-11-13T02:28:10;6.30;99.90
18444;DHT22;9350;53.176;8.194;2022-11-13T02:30:36;6.30;99.90
18444;DHT22;9350;53.176;8.194;2022-11-13T02:33:20;6.30;99.90
18444;DHT22;9350;53.176;8.194;2022-11-13T02:35:47;6.30;99.90
18444;DHT22;9350;53.176;8.194;2022-11-13T02:38:14;6.30;99.90
18444;DHT22;9350;53.176;8.194;2022-11-13T02:40:42;6.40;99.90
18444;DHT22;9350;53.176;8.194;2022-11-13T02:43:09;6.40;99.90
18444;DHT22;9350;53.176;8.194;2022-11-13T02:45:35;6.40;99.90
18444;DHT22;9350;53.176;8.194;2022-11-13T02:48:03;6.30;99.90
18444;DHT22;9350;53.176;8.194;2022-11-13T02:50:31;6.30;99.90
18444;DHT22;9350;53.176;8.194;2022-11-13T02:52:57;6.40;99.90
18444;DHT22;9350;53.176;8.194;2022-11-13T02:55:24;6.40;99.90
18444;DHT22;9350;53.176;8.194;2022-11-13T02:57:52;6.40;99.90
18444;DHT22;9350;53.176;8.194;2022-11-13T03:00:19;6.30;99.90
18444;DHT22;9350;53.176;8.194;2022-11-13T03:02:46;6.30;99.90
18444;DHT22;9350;53.176;8.194;2022-11-13T03:05:12;6.40;99.90
18444;DHT22;9350;53.176;8.194;2022-11-13T03:07:39;6.30;99.90
18444;DHT22;9350;53.176;8.194;2022-11-13T03:10:07;6.30;99.90
18444;DHT22;9350;53.176;8.194;2022-11-13T03:12:34;6.40;99.90
18444;DHT22;9350;53.176;8.194;2022-11-13T03:15:03;6.30;99.90
18444;DHT22;9350;53.176;8.194;2022-11-13T03:17:30;6.20;99.90
18444;DHT22;9350;53.176;8.194;2022-11-13T03:19:57;6.30;99.90
18444;DHT22;9350;53.176;8.194;2022-11-13T03:22:24;6.30;99.90
18444;DHT22;9350;53.176;8.194;2022-11-13T03:24:51;6.30;99.90
18444;DHT22;9350;53.176;8.194;2022-11-13T03:27:17;6.40;99.90
18444;DHT22;9350;53.176;8.194;2022-11-13T03:29:44;6.30;99.90
18444;DHT22;9350;53.176;8.194;2022-11-13T03:32:12;6.40;99.90
18444;DHT22;9350;53.176;8.194;2022-11-13T03:34:39;6.30;99.90
18444;DHT22;9350;53.176;8.194;2022-11-13T03:37:06;6.30;99.90
18444;DHT22;9350;53.176;8.194;2022-11-13T03:39:32;6.30;99.90
18444;DHT22;9350;53.176;8.194;2022-11-13T03:41:59;6.30;99.90
18444;DHT22;9350;53.176;8.194;2022-11-13T03:44:26;6.30;99.90
18444;DHT22;9350;53.176;8.194;2022-11-13T03:46:52;6.40;99.90
18444;DHT22;9350;53.176;8.194;2022-11-13T03:49:20;6.30;99.90
18444;DHT22;9350;53.176;8.194;2022-11-13T03:51:48;6.30;99.90
18444;DHT22;9350;53.176;8.194;2022-11-13T03:54:14;6.30;99.90
18444;DHT22;9350;53.176;8.194;2022-11-13T03:56:41;6.30;99.90
18444;DHT22;9350;53.176;8.194;2022-11-13T03:59:08;6.30;99.90
18444;DHT22;9350;53.176;8.194;2022-11-13T04:01:34;6.30;99.90
18444;DHT22;9350;53.176;8.194;2022-11-13T04:04:01;6.30;99.90
18444;DHT22;9350;53.176;8.194;2022-11-13T04:06:29;6.30;99.90
18444;DHT22;9350;53.176;8.194;2022-11-13T04:08:56;6.30;99.90
18444;DHT22;9350;53.176;8.194;2022-11-13T04:11:23;6.30;99.90
18444;DHT22;9350;53.176;8.194;2022-11-13T04:13:50;6.40;99.90
18444;DHT22;9350;53.176;8.194;2022-11-13T04:16:17;6.40;99.90
18444;DHT22;9350;53.176;8.194;2022-11-13T04:18:44;6.40;99.90
18444;DHT22;9350;53.176;8.194;2022-11-13T04:21:11;6.40;99.90
18444;DHT22;9350;53.176;8.194;2022-11-13T04:23:39;6.30;99.90
18444;DHT22;9350;53.176;8.194;2022-11-13T04:26:05;6.30;99.90
18444;DHT22;9350;53.176;8.194;2022-11-13T04:28:32;6.40;99.90
18444;DHT22;9350;53.176;8.194;2022-11-13T04:30:59;6.40;99.90
18444;DHT22;9350;53.176;8.194;2022-11-13T04:33:25;6.40;99.90
18444;DHT22;9350;53.176;8.194;2022-11-13T04:35:52;6.40;99.90
18444;DHT22;9350;53.176;8.194;2022-11-13T04:38:19;6.40;99.90
18444;DHT22;9350;53.176;8.194;2022-11-13T04:40:49;6.40;99.90
18444;DHT22;9350;53.176;8.194;2022-11-13T04:43:36;6.50;99.90
18444;DHT22;9350;53.176;8.194;2022-11-13T04:46:02;6.50;99.90
18444;DHT22;9350;53.176;8.194;2022-11-13T04:48:29;6.50;99.90
18444;DHT22;9350;53.176;8.194;2022-11-13T04:50:55;6.40;99.90
18444;DHT22;9350;53.176;8.194;2022-11-13T04:53:22;6.50;99.90
18444;DHT22;9350;53.176;8.194;2022-11-13T04:55:52;6.50;99.90
18444;DHT22;9350;53.176;8.194;2022-11-13T04:58:19;6.40;99.90
18444;DHT22;9350;53.176;8.194;2022-11-13T05:00:46;6.40;99.90
18444;DHT22;9350;53.176;8.194;2022-11-13T05:03:12;6.40;99.90
18444;DHT22;9350;53.176;8.194;2022-11-13T05:05:39;6.30;99.90
18444;DHT22;9350;53.176;8.194;2022-11-13T05:08:06;6.30;99.90
18444;DHT22;9350;53.176;8.194;2022-11-13T05:10:33;6.40;99.90
18444;DHT22;9350;53.176;8.194;2022-11-13T05:13:01;6.40;99.90
18444;DHT22;9350;53.176;8.194;2022-11-13T05:15:27;6.30;99.90
18444;DHT22;9350;53.176;8.194;2022-11-13T05:17:54;6.30;99.90
18444;DHT22;9350;53.176;8.194;2022-11-13T05:20:21;6.30;99.90
18444;DHT22;9350;53.176;8.194;2022-11-13T05:22:47;6.20;99.90
18444;DHT22;9350;53.176;8.194;2022-11-13T05:25:14;6.20;99.90
18444;DHT22;9350;53.176;8.194;2022-11-13T05:27:41;6.20;99.90
18444;DHT22;9350;53.176;8.194;2022-11-13T05:30:10;6.20;99.90
18444;DHT22;9350;53.176;8.194;2022-11-13T05:32:36;6.20;99.90
18444;DHT22;9350;53.176;8.194;2022-11-13T05:35:04;6.10;99.90
18444;DHT22;9350;53.176;8.194;2022-11-13T05:37:30;6.10;99.90
18444;DHT22;9350;53.176;8.194;2022-11-13T05:39:57;6.00;99.90
18444;DHT22;9350;53.176;8.194;2022-11-13T05:42:24;6.00;99.90
18444;DHT22;9350;53.176;8.194;2022-11-13T05:44:50;6.10;99.90
18444;DHT22;9350;53.176;8.194;2022-11-13T05:47:19;6.00;99.90
18444;DHT22;9350;53.176;8.194;2022-11-13T05:49:45;6.00;99.90
18444;DHT22;9350;53.176;8.194;2022-11-13T05:52:12;6.00;99.90
18444;DHT22;9350;53.176;8.194;2022-11-13T05:54:39;6.00;99.90
18444;DHT22;9350;53.176;8.194;2022-11-13T05:57:05;6.00;99.90
18444;DHT22;9350;53.176;8.194;2022-11-13T05:59:32;6.00;99.90
18444;DHT22;9350;53.176;8.194;2022-11-13T06:02:00;5.90;99.90
18444;DHT22;9350;53.176;8.194;2022-11-13T06:04:28;6.00;99.90
18444;DHT22;9350;53.176;8.194;2022-11-13T06:06:54;6.00;99.90
18444;DHT22;9350;53.176;8.194;2022-11-13T06:09:21;6.00;99.90
18444;DHT22;9350;53.176;8.194;2022-11-13T06:11:48;6.00;99.90
18444;DHT22;9350;53.176;8.194;2022-11-13T06:14:15;6.00;99.90
18444;DHT22;9350;53.176;8.194;2022-11-13T06:16:41;6.00;99.90
18444;DHT22;9350;53.176;8.194;2022-11-13T06:19:09;6.00;99.90
18444;DHT22;9350;53.176;8.194;2022-11-13T06:21:39;6.00;99.90
18444;DHT22;9350;53.176;8.194;2022-11-13T06:24:08;5.90;99.90
18444;DHT22;9350;53.176;8.194;2022-11-13T06:26:36;5.90;99.90
18444;DHT22;9350;53.176;8.194;2022-11-13T06:29:04;5.90;99.90
18444;DHT22;9350;53.176;8.194;2022-11-13T06:31:33;6.00;99.90
18444;DHT22;9350;53.176;8.194;2022-11-13T06:34:01;5.90;99.90
18444;DHT22;9350;53.176;8.194;2022-11-13T06:36:30;5.80;99.90
18444;DHT22;9350;53.176;8.194;2022-11-13T06:38:58;5.80;99.90
18444;DHT22;9350;53.176;8.194;2022-11-13T06:41:27;5.80;99.90
18444;DHT22;9350;53.176;8.194;2022-11-13T06:43:54;5.80;99.90
18444;DHT22;9350;53.176;8.194;2022-11-13T06:46:22;5.80;99.90
18444;DHT22;9350;53.176;8.194;2022-11-13T06:48:49;5.80;99.90
18444;DHT22;9350;53.176;8.194;2022-11-13T06:51:19;5.80;99.90
18444;DHT22;9350;53.176;8.194;2022-11-13T06:53:47;5.90;99.90
18444;DHT22;9350;53.176;8.194;2022-11-13T06:56:16;5.90;99.90
18444;DHT22;9350;53.176;8.194;2022-11-13T06:58:43;5.90;99.90
18444;DHT22;9350;53.176;8.194;2022-11-13T07:01:12;5.90;99.90
18444;DHT22;9350;53.176;8.194;2022-11-13T07:03:39;5.90;99.90
18444;DHT22;9350;53.176;8.194;2022-11-13T07:06:07;5.90;99.90
18444;DHT22;9350;53.176;8.194;2022-11-13T07:08:34;6.00;99.90
18444;DHT22;9350;53.176;8.194;2022-11-13T07:11:02;6.00;99.90
18444;DHT22;9350;53.176;8.194;2022-11-13T07:13:30;6.00;99.90
18444;DHT22;9350;53.176;8.194;2022-11-13T07:16:01;5.90;99.90
18444;DHT22;9350;53.176;8.194;2022-11-13T07:18:28;6.10;99.90
18444;DHT22;9350;53.176;8.194;2022-11-13T07:20:55;6.00;99.90
18444;DHT22;9350;53.176;8.194;2022-11-13T07:23:22;6.10;99.90
18444;DHT22;9350;53.176;8.194;2022-11-13T07:25:51;6.10;99.90
18444;DHT22;9350;53.176;8.194;2022-11-13T07:28:18;6.10;99.90
18444;DHT22;9350;53.176;8.194;2022-11-13T07:30:46;6.10;99.90
18444;DHT22;9350;53.176;8.194;2022-11-13T07:33:13;6.10;99.90
18444;DHT22;9350;53.176;8.194;2022-11-13T07:35:41;6.10;99.90
18444;DHT22;9350;53.176;8.194;2022-11-13T07:38:08;6.10;99.90
18444;DHT22;9350;53.176;8.194;2022-11-13T07:40:34;6.20;99.90
18444;DHT22;9350;53.176;8.194;2022-11-13T07:43:02;6.10;99.90
18444;DHT22;9350;53.176;8.194;2022-11-13T07:45:28;6.10;99.90
18444;DHT22;9350;53.176;8.194;2022-11-13T07:48:00;6.20;99.90
18444;DHT22;9350;53.176;8.194;2022-11-13T07:50:28;6.10;99.90
18444;DHT22;9350;53.176;8.194;2022-11-13T07:52:56;6.20;99.90
18444;DHT22;9350;53.176;8.194;2022-11-13T07:55:23;6.20;99.90
18444;DHT22;9350;53.176;8.194;2022-11-13T07:57:53;6.20;99.90
18444;DHT22;9350;53.176;8.194;2022-11-13T08:00:20;6.30;99.90
18444;DHT22;9350;53.176;8.194;2022-11-13T08:02:47;6.40;99.90
18444;DHT22;9350;53.176;8.194;2022-11-13T08:05:15;6.30;99.90
18444;DHT22;9350;53.176;8.194;2022-11-13T08:07:45;6.40;99.90
18444;DHT22;9350;53.176;8.194;2022-11-13T08:10:12;6.50;99.90
18444;DHT22;9350;53.176;8.194;2022-11-13T08:12:38;6.50;99.90
18444;DHT22;9350;53.176;8.194;2022-11-13T08:15:06;6.40;99.90
18444;DHT22;9350;53.176;8.194;2022-11-13T08:17:33;6.50;99.90
18444;DHT22;9350;53.176;8.194;2022-11-13T08:20:00;6.70;99.90
18444;DHT22;9350;53.176;8.194;2022-11-13T08:22:28;6.60;99.90
18444;DHT22;9350;53.176;8.194;2022-11-13T08:24:55;6.70;99.90
18444;DHT22;9350;53.176;8.194;2022-11-13T08:27:22;6.70;99.90
18444;DHT22;9350;53.176;8.194;2022-11-13T08:29:50;6.80;99.90
18444;DHT22;9350;53.176;8.194;2022-11-13T08:32:18;6.80;99.90
18444;DHT22;9350;53.176;8.194;2022-11-13T08:34:47;6.70;99.90
18444;DHT22;9350;53.176;8.194;2022-11-13T08:37:13;6.80;99.90
18444;DHT22;9350;53.176;8.194;2022-11-13T08:39:41;6.80;99.90
18444;DHT22;9350;53.176;8.194;2022-11-13T08:42:08;6.90;99.90
18444;DHT22;9350;53.176;8.194;2022-11-13T08:44:35;6.80;99.90
18444;DHT22;9350;53.176;8.194;2022-11-13T08:47:02;6.90;99.90
18444;DHT22;9350;53.176;8.194;2022-11-13T08:49:28;6.90;99.90
18444;DHT22;9350;53.176;8.194;2022-11-13T08:51:55;7.00;99.90
18444;DHT22;9350;53.176;8.194;2022-11-13T08:54:22;7.00;99.90
18444;DHT22;9350;53.176;8.194;2022-11-13T08:56:50;7.10;99.90
18444;DHT22;9350;53.176;8.194;2022-11-13T08:59:17;7.10;99.90
18444;DHT22;9350;53.176;8.194;2022-11-13T09:01:43;7.10;99.90
18444;DHT22;9350;53.176;8.194;2022-11-13T09:04:10;7.10;99.90
18444;DHT22;9350;53.176;8.194;2022-11-13T09:06:37;7.10;99.90
18444;DHT22;9350;53.176;8.194;2022-11-13T09:09:04;7.20;99.90
18444;DHT22;9350;53.176;8.194;2022-11-13T09:11:31;7.20;99.90
18444;DHT22;9350;53.176;8.194;2022-11-13T09:14:00;7.30;99.90
18444;DHT22;9350;53.176;8.194;2022-11-13T09:16:26;7.30;99.90
18444;DHT22;9350;53.176;8.194;2022-11-13T09:18:54;7.30;99.90
18444;DHT22;9350;53.176;8.194;2022-11-13T09:21:21;7.40;99.90
18444;DHT22;9350;53.176;8.194;2022-11-13T09:23:48;7.40;99.90
18444;DHT22;9350;53.176;8.194;2022-11-13T09:26:15;7.30;99.90
18444;DHT22;9350;53.176;8.194;2022-11-13T09:28:42;7.40;99.90
18444;DHT22;9350;53.176;8.194;2022-11-13T09:31:10;7.50;99.90
18444;DHT22;9350;53.176;8.194;2022-11-13T09:33:36;7.50;99.90
18444;DHT22;9350;53.176;8.194;2022-11-13T09:36:09;7.60;99.90
18444;DHT22;9350;53.176;8.194;2022-11-13T09:38:36;7.50;99.90
18444;DHT22;9350;53.176;8.194;2022-11-13T09:41:06;7.60;99.90
18444;DHT22;9350;53.176;8.194;2022-11-13T09:43:38;7.60;99.90
18444;DHT22;9350;53.176;8.194;2022-11-13T09:46:17;7.70;99.90
18444;DHT22;9350;53.176;8.194;2022-11-13T09:48:49;7.70;99.90
18444;DHT22;9350;53.176;8.194;2022-11-13T09:51:19;7.70;99.90
18444;DHT22;9350;53.176;8.194;2022-11-13T09:53:46;7.70;99.90
18444;DHT22;9350;53.176;8.194;2022-11-13T09:56:27;7.80;99.90
18444;DHT22;9350;53.176;8.194;2022-11-13T09:59:01;7.80;99.90
18444;DHT22;9350;53.176;8.194;2022-11-13T10:01:38;7.90;99.90
18444;DHT22;9350;53.176;8.194;2022-11-13T10:04:10;7.90;99.90
18444;DHT22;9350;53.176;8.194;2022-11-13T10:06:51;8.00;99.90
18444;DHT22;9350;53.176;8.194;2022-11-13T10:09:28;8.00;99.90
18444;DHT22;9350;53.176;8.194;2022-11-13T10:12:01;8.10;99.90
18444;DHT22;9350;53.176;8.194;2022-11-13T10:14:33;8.20;99.90
18444;DHT22;9350;53.176;8.194;2022-11-13T10:17:07;8.20;99.90
18444;DHT22;9350;53.176;8.194;2022-11-13T10:19:40;8.20;99.90
18444;DHT22;9350;53.176;8.194;2022-11-13T10:22:18;8.30;99.90
18444;DHT22;9350;53.176;8.194;2022-11-13T10:24:50;8.40;99.90
18444;DHT22;9350;53.176;8.194;2022-11-13T10:27:18;8.40;99.90
18444;DHT22;9350;53.176;8.194;2022-11-13T10:29:45;8.50;99.90
18444;DHT22;9350;53.176;8.194;2022-11-13T10:32:20;8.50;99.90
18444;DHT22;9350;53.176;8.194;2022-11-13T10:34:49;8.60;99.90
18444;DHT22;9350;53.176;8.194;2022-11-13T10:37:27;8.70;99.90
18444;DHT22;9350;53.176;8.194;2022-11-13T10:39:55;8.70;99.90
18444;DHT22;9350;53.176;8.194;2022-11-13T10:42:26;8.80;99.90
18444;DHT22;9350;53.176;8.194;2022-11-13T10:44:55;8.80;99.90
18444;DHT22;9350;53.176;8.194;2022-11-13T10:47:24;8.80;99.90
18444;DHT22;9350;53.176;8.194;2022-11-13T10:49:51;8.90;99.90
18444;DHT22;9350;53.176;8.194;2022-11-13T10:52:23;8.90;99.90
18444;DHT22;9350;53.176;8.194;2022-11-13T10:54:50;9.00;99.90
18444;DHT22;9350;53.176;8.194;2022-11-13T10:57:31;9.10;99.90
18444;DHT22;9350;53.176;8.194;2022-11-13T10:59:59;9.10;99.90
18444;DHT22;9350;53.176;8.194;2022-11-13T11:02:28;9.20;99.90
18444;DHT22;9350;53.176;8.194;2022-11-13T11:05:03;9.20;99.90
18444;DHT22;9350;53.176;8.194;2022-11-13T11:07:38;9.20;99.90
18444;DHT22;9350;53.176;8.194;2022-11-13T11:10:19;9.20;99.90
18444;DHT22;9350;53.176;8.194;2022-11-13T11:12:51;9.20;99.90
18444;DHT22;9350;53.176;8.194;2022-11-13T11:15:22;9.40;99.90
18444;DHT22;9350;53.176;8.194;2022-11-13T11:17:56;9.30;99.90
18444;DHT22;9350;53.176;8.194;2022-11-13T11:20:33;9.40;99.90
18444;DHT22;9350;53.176;8.194;2022-11-13T11:23:13;9.50;99.90
18444;DHT22;9350;53.176;8.194;2022-11-13T11:25:44;9.40;99.90
18444;DHT22;9350;53.176;8.194;2022-11-13T11:28:27;9.50;99.90
18444;DHT22;9350;53.176;8.194;2022-11-13T11:30:58;9.50;99.90
18444;DHT22;9350;53.176;8.194;2022-11-13T11:33:33;9.60;99.90
18444;DHT22;9350;53.176;8.194;2022-11-13T11:36:07;9.70;99.90
18444;DHT22;9350;53.176;8.194;2022-11-13T11:38:45;9.70;99.90
18444;DHT22;9350;53.176;8.194;2022-11-13T11:41:16;9.70;99.90
18444;DHT22;9350;53.176;8.194;2022-11-13T11:43:46;9.80;99.90
18444;DHT22;9350;53.176;8.194;2022-11-13T11:46:18;9.80;99.90
18444;DHT22;9350;53.176;8.194;2022-11-13T11:48:49;9.90;99.90
18444;DHT22;9350;53.176;8.194;2022-11-13T11:51:21;9.90;99.90
18444;DHT22;9350;53.176;8.194;2022-11-13T11:53:57;9.90;99.90
18444;DHT22;9350;53.176;8.194;2022-11-13T11:56:30;10.00;99.90
18444;DHT22;9350;53.176;8.194;2022-11-13T11:59:11;10.00;99.90
18444;DHT22;9350;53.176;8.194;2022-11-13T12:02:01;10.00;99.90
18444;DHT22;9350;53.176;8.194;2022-11-13T12:04:46;10.00;99.90
18444;DHT22;9350;53.176;8.194;2022-11-13T12:07:28;10.10;99.90
18444;DHT22;9350;53.176;8.194;2022-11-13T12:10:03;10.10;99.90
18444;DHT22;9350;53.176;8.194;2022-11-13T12:12:45;10.10;99.90
18444;DHT22;9350;53.176;8.194;2022-11-13T12:15:19;10.20;99.90
18444;DHT22;9350;53.176;8.194;2022-11-13T12:17:56;10.30;99.90
18444;DHT22;9350;53.176;8.194;2022-11-13T12:20:32;10.30;99.90
18444;DHT22;9350;53.176;8.194;2022-11-13T12:23:07;10.30;99.90
18444;DHT22;9350;53.176;8.194;2022-11-13T12:25:43;10.30;99.90
18444;DHT22;9350;53.176;8.194;2022-11-13T12:28:17;10.30;99.90
18444;DHT22;9350;53.176;8.194;2022-11-13T12:30:54;10.30;99.90
18444;DHT22;9350;53.176;8.194;2022-11-13T12:33:33;10.30;99.90
18444;DHT22;9350;53.176;8.194;2022-11-13T12:36:04;10.30;99.90
18444;DHT22;9350;53.176;8.194;2022-11-13T12:38:35;10.40;99.90
18444;DHT22;9350;53.176;8.194;2022-11-13T12:41:11;10.40;99.90
18444;DHT22;9350;53.176;8.194;2022-11-13T12:43:55;10.30;99.90
18444;DHT22;9350;53.176;8.194;2022-11-13T12:46:32;10.40;99.90
18444;DHT22;9350;53.176;8.194;2022-11-13T12:49:00;10.40;99.90
18444;DHT22;9350;53.176;8.194;2022-11-13T12:51:39;10.40;99.90
18444;DHT22;9350;53.176;8.194;2022-11-13T12:54:08;10.40;99.90
18444;DHT22;9350;53.176;8.194;2022-11-13T12:56:35;10.40;99.90
18444;DHT22;9350;53.176;8.194;2022-11-13T12:59:11;10.40;99.90
18444;DHT22;9350;53.176;8.194;2022-11-13T13:01:43;10.30;99.90
18444;DHT22;9350;53.176;8.194;2022-11-13T13:04:27;10.30;99.90
18444;DHT22;9350;53.176;8.194;2022-11-13T13:07:08;10.30;99.90
18444;DHT22;9350;53.176;8.194;2022-11-13T13:09:47;10.30;99.90
18444;DHT22;9350;53.176;8.194;2022-11-13T13:12:25;10.30;99.90
18444;DHT22;9350;53.176;8.194;2022-11-13T13:15:21;10.30;99.90
18444;DHT22;9350;53.176;8.194;2022-11-13T13:18:01;10.30;99.90
18444;DHT22;9350;53.176;8.194;2022-11-13T13:20:32;10.20;99.90
18444;DHT22;9350;53.176;8.194;2022-11-13T13:23:00;10.30;99.90
18444;DHT22;9350;53.176;8.194;2022-11-13T13:25:29;10.30;99.90
18444;DHT22;9350;53.176;8.194;2022-11-13T13:27:57;10.20;99.90
18444;DHT22;9350;53.176;8.194;2022-11-13T13:30:24;10.20;99.90
18444;DHT22;9350;53.176;8.194;2022-11-13T13:32:59;10.30;99.90
18444;DHT22;9350;53.176;8.194;2022-11-13T13:35:33;10.20;99.90
18444;DHT22;9350;53.176;8.194;2022-11-13T13:38:12;10.30;99.90
18444;DHT22;9350;53.176;8.194;2022-11-13T13:41:00;10.30;99.90
18444;DHT22;9350;53.176;8.194;2022-11-13T13:43:39;10.30;99.90
18444;DHT22;9350;53.176;8.194;2022-11-13T13:46:13;10.20;99.90
18444;DHT22;9350;53.176;8.194;2022-11-13T13:48:41;10.20;99.90
18444;DHT22;9350;53.176;8.194;2022-11-13T13:51:16;10.20;99.90
18444;DHT22;9350;53.176;8.194;2022-11-13T13:53:47;10.30;99.90
18444;DHT22;9350;53.176;8.194;2022-11-13T13:56:15;10.30;99.90
18444;DHT22;9350;53.176;8.194;2022-11-13T13:58:43;10.20;99.90
18444;DHT22;9350;53.176;8.194;2022-11-13T14:01:13;10.10;99.90
18444;DHT22;9350;53.176;8.194;2022-11-13T14:03:40;10.10;99.90
18444;DHT22;9350;53.176;8.194;2022-11-13T14:06:09;10.00;99.90
18444;DHT22;9350;53.176;8.194;2022-11-13T14:08:35;10.10;99.90
18444;DHT22;9350;53.176;8.194;2022-11-13T14:11:15;10.00;99.90
18444;DHT22;9350;53.176;8.194;2022-11-13T14:13:42;10.00;99.90
18444;DHT22;9350;53.176;8.194;2022-11-13T14:16:09;10.10;99.90
18444;DHT22;9350;53.176;8.194;2022-11-13T14:18:35;10.00;99.90
18444;DHT22;9350;53.176;8.194;2022-11-13T14:21:09;10.00;99.90
18444;DHT22;9350;53.176;8.194;2022-11-13T14:23:39;9.90;99.90
18444;DHT22;9350;53.176;8.194;2022-11-13T14:26:09;10.00;99.90
18444;DHT22;9350;53.176;8.194;2022-11-13T14:28:44;9.90;99.90
18444;DHT22;9350;53.176;8.194;2022-11-13T14:31:13;9.90;99.90
18444;DHT22;9350;53.176;8.194;2022-11-13T14:33:42;10.00;99.90
18444;DHT22;9350;53.176;8.194;2022-11-13T14:36:10;10.00;99.90
18444;DHT22;9350;53.176;8.194;2022-11-13T14:38:41;9.90;99.90
18444;DHT22;9350;53.176;8.194;2022-11-13T14:41:19;9.90;99.90
18444;DHT22;9350;53.176;8.194;2022-11-13T14:43:49;9.90;99.90
18444;DHT22;9350;53.176;8.194;2022-11-13T14:46:27;9.80;99.90
18444;DHT22;9350;53.176;8.194;2022-11-13T14:48:55;9.80;99.90
18444;DHT22;9350;53.176;8.194;2022-11-13T14:51:24;9.80;99.90
18444;DHT22;9350;53.176;8.194;2022-11-13T14:54:01;9.70;99.90
18444;DHT22;9350;53.176;8.194;2022-11-13T14:56:35;9.80;99.90
18444;DHT22;9350;53.176;8.194;2022-11-13T14:59:09;9.80;99.90
18444;DHT22;9350;53.176;8.194;2022-11-13T15:01:37;9.80;99.90
18444;DHT22;9350;53.176;8.194;2022-11-13T15:04:04;9.80;99.90
18444;DHT22;9350;53.176;8.194;2022-11-13T15:06:35;9.80;99.90
18444;DHT22;9350;53.176;8.194;2022-11-13T15:09:04;9.70;99.90
18444;DHT22;9350;53.176;8.194;2022-11-13T15:11:32;9.70;99.90
18444;DHT22;9350;53.176;8.194;2022-11-13T15:13:59;9.70;99.90
18444;DHT22;9350;53.176;8.194;2022-11-13T15:16:27;9.70;99.90
18444;DHT22;9350;53.176;8.194;2022-11-13T15:19:01;9.60;99.90
18444;DHT22;9350;53.176;8.194;2022-11-13T15:21:28;9.60;99.90
18444;DHT22;9350;53.176;8.194;2022-11-13T15:23:55;9.60;99.90
18444;DHT22;9350;53.176;8.194;2022-11-13T15:26:22;9.60;99.90
18444;DHT22;9350;53.176;8.194;2022-11-13T15:28:50;9.60;99.90
18444;DHT22;9350;53.176;8.194;2022-11-13T15:31:19;9.60;99.90
18444;DHT22;9350;53.176;8.194;2022-11-13T15:33:46;9.60;99.90
18444;DHT22;9350;53.176;8.194;2022-11-13T15:36:13;9.60;99.90
18444;DHT22;9350;53.176;8.194;2022-11-13T15:38:40;9.60;99.90
18444;DHT22;9350;53.176;8.194;2022-11-13T15:41:11;9.50;99.90
18444;DHT22;9350;53.176;8.194;2022-11-13T15:43:39;9.50;99.90
18444;DHT22;9350;53.176;8.194;2022-11-13T15:46:11;9.50;99.90
18444;DHT22;9350;53.176;8.194;2022-11-13T15:48:39;9.40;99.90
18444;DHT22;9350;53.176;8.194;2022-11-13T15:51:14;9.40;99.90
18444;DHT22;9350;53.176;8.194;2022-11-13T15:53:41;9.40;99.90
18444;DHT22;9350;53.176;8.194;2022-11-13T15:56:08;9.40;99.90
18444;DHT22;9350;53.176;8.194;2022-11-13T15:58:35;9.40;99.90
18444;DHT22;9350;53.176;8.194;2022-11-13T16:01:02;9.30;99.90
18444;DHT22;9350;53.176;8.194;2022-11-13T16:03:30;9.20;99.90
18444;DHT22;9350;53.176;8.194;2022-11-13T16:06:06;9.20;99.90
18444;DHT22;9350;53.176;8.194;2022-11-13T16:08:34;9.20;99.90
18444;DHT22;9350;53.176;8.194;2022-11-13T16:11:00;9.10;99.90
18444;DHT22;9350;53.176;8.194;2022-11-13T16:13:27;9.00;99.90
18444;DHT22;9350;53.176;8.194;2022-11-13T16:15:54;9.10;99.90
18444;DHT22;9350;53.176;8.194;2022-11-13T16:18:23;8.90;99.90